Manasquan, NJ (08736)

12:00 AM EDT on August 22, 2014 (GMT -0400)
Manasquan Shores area of Wall Twp | Change Station
CLOSE
Current Station
Personal Weather Station
Location: Manasquan, NJ
Elevation: 40 ft
Nearby Weather Stations

Elev 40 ft 40.12 °N, 74.06 °W | Updated 15 days ago

Rain
Rain
68 °F
Feels Like 68 °F
N
6
Wind Variable Wind from ESE
Gusts 8 mph

Today
High -- | Low -- °F
--% Chance of Precip.
Yesterday
High -- | Low -- °F
Precip. -- in
6:14 AM 7:43 PM
Waning Crescent, 10% visible
Pressure 30.03 in
Visibility 10.0 miles
Clouds Scattered Clouds 3900 ft
Mostly Cloudy 5000 ft
Dew Point 64 °F
Humidity 85%
Rainfall 0.00 in
Snow Depth Not available.
UV 0 out of 12
Pollen 8.80 out of 12
Air Quality Not available.
Flu Activity Not available.
METAR KBLM 220355Z AUTO 12005KT 10SM SCT039 BKN050 22/17 A3003 RMK AO1 LTG DSNT W

More Conditions Fewer Conditions

Pressure 30.03 in
Visibility 10.0 miles
Clouds Scattered Clouds 3900 ft
Mostly Cloudy 5000 ft
Dew Point 64 °F
Humidity 85%
Rainfall 0.00 in
Snow Depth Not available.
UV 0 out of 12
Pollen 8.80 out of 12
Air Quality Not available.
Flu Activity Not available.
METAR KBLM 220355Z AUTO 12005KT 10SM SCT039 BKN050 22/17 A3003 RMK AO1 LTG DSNT W

More Conditions Fewer Conditions

10-Day Weather Forecast

Almanac

Astronomy

Aug. 22, 2014 Rise Set
Actual Time 6:14 AM EDT 7:43 PM EDT
Civil Twilight 5:45 AM EDT 8:11 PM EDT
Nautical Twilight 5:11 AM EDT 8:45 PM EDT
Astronomical Twilight 4:35 AM EDT 9:21 PM EDT
Moon 3:34 AM EDT 5:50 PM EDT
Length of Visible Light 14h 25m
Length of Day
13h 28m
Tomorrow will be 2m 26s shorter.
Waning Crescent, 10% of the Moon is Illuminated
Today
Waning Crescent
Aug 25
New
Sep 2
First Quarter
Sep 8
Full
Sep 15
Last Quarter

Yesterday's Extremes

State Highs State Lows

Community

WunderPhotos

Upload Photos

1,746,125 photos uploaded!

Nearby

Snow Depth

Station Depth Elevation
No new snow has been reported.

Earthquake Activity

City Distance Mag. Time & Date
No recent earthquake activity has been reported nearby.
Minimum magnitude displayed is 2.5.

Coastal Water Temperatures

Place Temperature
Atlantic City, NJ 77.0 °F

Nearby Weather Stations